createdAt,value
2022-11-04T00:02:58.424Z,88.04
2022-11-04T00:08:19.019Z,87.89
2022-11-04T00:13:22.179Z,87.41
2022-11-04T00:18:24.245Z,87.37
2022-11-04T00:23:44.572Z,82.18
2022-11-04T00:28:47.965Z,83.09
2022-11-04T00:33:50.457Z,83.26
2022-11-04T00:38:52.376Z,82.55
2022-11-04T00:43:55.949Z,82.80
2022-11-04T00:48:57.777Z,88.81
2022-11-04T00:53:59.640Z,90.74
2022-11-04T00:59:02.934Z,84.82
2022-11-04T01:04:04.874Z,89.45
2022-11-04T01:09:10.933Z,82.68
2022-11-04T01:14:14.066Z,82.17
2022-11-04T01:19:15.917Z,81.18
2022-11-04T01:24:17.773Z,80.58
2022-11-04T01:29:20.916Z,81.15
2022-11-04T01:34:22.680Z,79.92
2022-11-04T01:39:24.524Z,80.10
2022-11-04T01:44:50.314Z,80.67
2022-11-04T01:49:53.876Z,80.55
2022-11-04T01:54:56.649Z,80.31
2022-11-04T02:00:01.562Z,80.74
2022-11-04T02:05:13.477Z,81.01
2022-11-04T02:10:15.254Z,81.56
2022-11-04T02:15:20.964Z,81.77
2022-11-04T02:20:38.069Z,82.38
2022-11-04T02:26:06.643Z,80.94
2022-11-04T02:31:11.520Z,79.99
2022-11-04T02:36:16.742Z,79.30
2022-11-04T02:41:24.419Z,79.53
2022-11-04T02:46:31.283Z,79.65
2022-11-04T02:51:35.339Z,80.11
2022-11-04T02:56:38.707Z,81.12
2022-11-04T03:01:42.367Z,80.89
2022-11-04T03:06:44.858Z,81.19
2022-11-04T03:11:48.296Z,81.31
2022-11-04T03:16:52.703Z,80.53
2022-11-04T03:21:55.581Z,81.74
2022-11-04T03:26:59.558Z,83.82
2022-11-04T03:32:06.954Z,83.71
2022-11-04T03:37:08.728Z,84.13
2022-11-04T03:42:20.553Z,85.32
2022-11-04T03:47:25.116Z,86.18
2022-11-04T03:52:26.893Z,86.39
2022-11-04T03:57:42.291Z,87.11
2022-11-04T04:02:56.020Z,86.30
2022-11-04T04:08:03.049Z,86.07
2022-11-04T04:13:07.847Z,86.54
2022-11-04T04:18:12.798Z,85.72
2022-11-04T04:23:35.054Z,84.78
2022-11-04T04:28:36.945Z,85.23
2022-11-04T04:33:40.137Z,84.42
2022-11-04T04:39:00.354Z,85.68
2022-11-04T04:44:20.723Z,85.68
2022-11-04T04:49:23.867Z,84.63
2022-11-04T04:54:25.740Z,84.27
2022-11-04T04:59:27.510Z,83.61
2022-11-04T05:04:30.704Z,82.26
2022-11-04T05:09:32.456Z,80.79
2022-11-04T05:14:34.287Z,79.95
2022-11-04T05:19:37.444Z,81.52
2022-11-04T05:24:39.192Z,82.62
2022-11-04T05:29:41.084Z,80.89
2022-11-04T05:34:44.198Z,80.04
2022-11-04T05:39:45.953Z,78.32
2022-11-04T05:44:47.722Z,76.88
2022-11-04T05:49:50.836Z,77.30
2022-11-04T05:54:52.618Z,78.67
2022-11-04T05:59:54.385Z,79.05
2022-11-04T06:04:57.634Z,79.56
2022-11-04T06:10:00.283Z,78.77
2022-11-04T06:15:02.175Z,78.85
2022-11-04T06:20:06.605Z,78.64
2022-11-04T06:25:09.351Z,79.03
2022-11-04T06:30:12.975Z,79.01
2022-11-04T06:35:16.331Z,78.80
2022-11-04T06:40:18.111Z,78.87
2022-11-04T06:45:19.927Z,78.34
2022-11-04T06:50:23.108Z,77.99
2022-11-04T06:55:24.887Z,76.71
2022-11-04T07:00:26.718Z,76.46
2022-11-04T07:05:29.932Z,75.34
2022-11-04T07:10:31.850Z,73.68
2022-11-04T07:15:33.625Z,72.86
2022-11-04T07:20:37.483Z,71.93
2022-11-04T07:25:39.237Z,72.48
2022-11-04T07:30:41.059Z,71.59
2022-11-04T07:35:45.657Z,71.31
2022-11-04T07:40:47.461Z,71.68
2022-11-04T07:45:59.137Z,71.95
2022-11-04T07:51:02.568Z,70.88
2022-11-04T07:56:04.754Z,70.70
2022-11-04T08:01:08.214Z,70.65
2022-11-04T08:06:12.594Z,71.01
2022-11-04T08:11:17.668Z,69.20
2022-11-04T08:16:20.696Z,67.26
2022-11-04T08:21:23.812Z,67.42
2022-11-04T08:26:25.657Z,66.22
2022-11-04T08:31:30.926Z,66.04
2022-11-04T08:36:36.603Z,65.50
2022-11-04T08:41:38.980Z,64.30
2022-11-04T08:46:41.163Z,63.66
2022-11-04T08:51:45.265Z,64.69
2022-11-04T08:56:47.102Z,65.96
2022-11-04T09:01:48.971Z,63.81
2022-11-04T09:06:52.340Z,63.33
2022-11-04T09:11:54.220Z,62.70
2022-11-04T09:16:56.025Z,62.17
2022-11-04T09:21:59.143Z,63.46
2022-11-04T09:27:00.905Z,64.42
2022-11-04T09:32:02.889Z,62.98
2022-11-04T09:37:06.008Z,61.90
2022-11-04T09:42:19.800Z,61.15
2022-11-04T09:47:22.352Z,61.40
2022-11-04T09:52:26.358Z,61.13
2022-11-04T09:57:28.398Z,60.06
2022-11-04T10:02:45.315Z,59.78
2022-11-04T10:07:57.727Z,56.94
2022-11-04T10:13:06.520Z,54.89
2022-11-04T10:18:16.451Z,56.35
2022-11-04T10:23:22.259Z,56.49
2022-11-04T10:28:26.247Z,57.20
2022-11-04T10:33:29.192Z,57.94
2022-11-04T10:38:35.739Z,55.52
2022-11-04T10:43:37.948Z,56.88
2022-11-04T10:48:43.324Z,57.28
2022-11-04T10:53:46.465Z,56.05
2022-11-04T10:58:48.438Z,57.78
2022-11-04T11:03:50.195Z,57.32
2022-11-04T11:08:54.326Z,58.34
2022-11-04T11:13:56.097Z,58.06
2022-11-04T11:19:08.690Z,57.61
2022-11-04T11:24:17.004Z,57.24
2022-11-04T11:29:21.814Z,55.69
2022-11-04T11:34:26.518Z,55.90
2022-11-04T11:39:30.248Z,54.88
2022-11-04T11:44:34.823Z,56.59
2022-11-04T11:49:37.980Z,55.50
2022-11-04T11:54:42.009Z,55.96
2022-11-04T12:10:56.904Z,50.42
2022-11-04T12:16:13.931Z,48.74
2022-11-04T12:21:16.922Z,47.88
2022-11-04T12:26:26.844Z,47.28
2022-11-04T12:31:34.241Z,48.11
2022-11-04T12:36:55.865Z,49.17
2022-11-04T12:42:22.465Z,50.44
2022-11-04T12:47:33.096Z,51.89
2022-11-04T12:52:42.081Z,51.51
2022-11-04T12:57:47.777Z,50.61
2022-11-04T13:02:51.238Z,49.57
2022-11-04T13:07:55.052Z,48.84
2022-11-04T13:13:00.816Z,50.06
2022-11-04T13:18:04.937Z,50.97
2022-11-04T13:23:08.546Z,53.55
2022-11-04T13:28:13.026Z,53.04
2022-11-04T13:33:17.524Z,52.80
2022-11-04T13:38:20.184Z,53.27
2022-11-04T13:43:40.836Z,54.82
2022-11-04T13:48:51.310Z,54.73
2022-11-04T13:53:54.836Z,53.57
2022-11-04T13:58:59.908Z,53.27
2022-11-04T14:04:24.819Z,53.87
2022-11-04T14:09:49.346Z,53.87
2022-11-04T14:14:53.440Z,53.30
2022-11-04T14:19:57.949Z,53.63
2022-11-04T14:25:00.695Z,54.79
2022-11-04T14:30:04.492Z,54.13
2022-11-04T14:35:07.050Z,53.41
2022-11-04T14:40:25.046Z,54.25
2022-11-04T14:45:30.765Z,55.75
2022-11-04T14:50:32.657Z,56.86
2022-11-04T14:57:14.985Z,57.95
2022-11-04T15:02:18.943Z,58.06
2022-11-04T15:07:35.170Z,58.54
2022-11-04T15:12:54.530Z,58.50
2022-11-04T15:17:58.330Z,58.62
2022-11-04T15:23:01.076Z,58.78
2022-11-04T15:28:04.491Z,59.80
2022-11-04T15:33:14.903Z,60.86
2022-11-04T15:38:16.751Z,61.81
2022-11-04T15:43:19.935Z,62.16
2022-11-04T15:48:27.314Z,62.65
2022-11-04T15:53:29.094Z,63.49
2022-11-04T15:58:32.347Z,64.34
2022-11-04T16:03:34.169Z,64.06
2022-11-04T16:08:36.070Z,64.95
2022-11-04T16:13:39.290Z,64.86
2022-11-04T16:18:42.620Z,64.42
2022-11-04T16:23:45.531Z,64.00
2022-11-04T16:28:48.891Z,64.20
2022-11-04T16:33:50.690Z,63.10
2022-11-04T16:38:53.837Z,63.45
2022-11-04T16:43:57.262Z,63.17
2022-11-04T16:48:59.069Z,63.51
2022-11-04T16:54:00.898Z,63.53
2022-11-04T16:59:04.081Z,62.86
2022-11-04T17:04:06.888Z,63.55
2022-11-04T17:09:18.256Z,63.16
2022-11-04T17:14:21.440Z,62.95
2022-11-04T17:19:23.255Z,63.32
2022-11-04T17:24:24.996Z,63.25
2022-11-04T17:29:29.848Z,63.28
2022-11-04T17:34:31.633Z,63.67
2022-11-04T17:39:33.669Z,63.41
2022-11-04T17:44:36.854Z,62.71
2022-11-04T17:49:39.119Z,63.09
2022-11-04T17:54:40.865Z,63.31
2022-11-04T17:59:44.078Z,63.38
2022-11-04T18:04:45.834Z,62.35
2022-11-04T18:09:47.681Z,62.41
2022-11-04T18:14:50.801Z,63.05
2022-11-04T18:19:52.567Z,62.61
2022-11-04T18:24:54.599Z,64.15
2022-11-04T18:29:57.795Z,64.24
2022-11-04T18:34:59.607Z,64.78
2022-11-04T18:40:01.379Z,65.02
2022-11-04T18:45:05.200Z,65.10
2022-11-04T18:50:07.685Z,64.63
2022-11-04T18:55:09.944Z,65.26
2022-11-04T19:00:17.228Z,64.31
2022-11-04T19:05:19.778Z,64.52
2022-11-04T19:10:22.241Z,65.53
2022-11-04T19:15:25.480Z,66.78
2022-11-04T19:20:28.058Z,68.37
2022-11-04T19:25:30.075Z,69.05
2022-11-04T19:30:34.815Z,69.80
2022-11-04T19:35:36.838Z,70.91
2022-11-04T19:40:38.765Z,70.67
2022-11-04T19:45:42.521Z,69.96
2022-11-04T19:50:45.856Z,70.16
2022-11-04T19:55:49.064Z,69.13
2022-11-04T20:00:53.204Z,69.92
2022-11-04T20:05:55.135Z,69.02
2022-11-04T20:10:59.032Z,69.42
2022-11-04T20:16:03.127Z,69.48
2022-11-04T20:21:05.402Z,70.37
2022-11-04T20:26:08.999Z,72.01
2022-11-04T20:31:12.917Z,74.13
2022-11-04T20:36:15.776Z,72.90
2022-11-04T20:41:20.524Z,73.47
2022-11-04T20:46:24.657Z,74.07
2022-11-04T20:51:30.272Z,74.68
2022-11-04T20:56:32.773Z,75.78
2022-11-04T21:01:37.460Z,74.09
2022-11-04T21:06:39.496Z,75.82
2022-11-04T21:11:41.555Z,76.52
2022-11-04T21:16:44.786Z,77.54
2022-11-04T21:21:47.124Z,77.55
2022-11-04T21:26:49.125Z,78.15
2022-11-04T21:31:52.367Z,78.64
2022-11-04T21:36:54.146Z,78.29
2022-11-04T21:41:55.879Z,77.23
2022-11-04T21:46:59.021Z,77.52
2022-11-04T21:52:00.890Z,74.77
2022-11-04T21:57:02.745Z,77.76
2022-11-04T22:02:05.916Z,76.76
2022-11-04T22:07:07.746Z,77.79
2022-11-04T22:12:09.545Z,77.50
2022-11-04T22:17:12.828Z,78.32
2022-11-04T22:22:14.796Z,77.74
2022-11-04T22:27:16.536Z,78.11
2022-11-04T22:32:19.844Z,79.62
2022-11-04T22:37:21.867Z,79.04
2022-11-04T22:42:23.763Z,78.61
2022-11-04T22:47:27.784Z,79.06
2022-11-04T22:52:29.585Z,79.61
2022-11-04T22:57:31.342Z,78.33
2022-11-04T23:02:37.118Z,77.76
2022-11-04T23:07:39.319Z,75.88
2022-11-04T23:12:59.716Z,76.20
2022-11-04T23:18:21.375Z,75.55
2022-11-04T23:23:41.668Z,74.97
2022-11-04T23:29:01.930Z,75.09
2022-11-04T23:34:23.453Z,75.61
2022-11-04T23:39:25.334Z,76.10
2022-11-04T23:44:45.536Z,75.83
2022-11-04T23:50:07.157Z,75.99
2022-11-04T23:55:35.453Z,77.00
